createdAt,value
2022-12-05T00:02:04.119Z,33.50
2022-12-05T00:04:52.246Z,32.50
2022-12-05T00:07:28.977Z,34.20
2022-12-05T00:09:57.300Z,34.30
2022-12-05T00:12:25.329Z,35.40
2022-12-05T00:14:53.292Z,35.90
2022-12-05T00:17:21.334Z,33.70
2022-12-05T00:19:55.093Z,33.80
2022-12-05T00:22:24.606Z,33.00
2022-12-05T00:24:52.622Z,29.60
2022-12-05T00:27:20.778Z,31.40
2022-12-05T00:29:48.732Z,32.00
2022-12-05T00:32:16.685Z,33.50
2022-12-05T00:34:44.677Z,30.50
2022-12-05T00:37:12.573Z,30.30
2022-12-05T00:39:40.454Z,29.10
2022-12-05T00:42:08.486Z,32.00
2022-12-05T00:44:36.379Z,29.40
2022-12-05T00:47:04.293Z,27.70
2022-12-05T00:49:32.256Z,32.90
2022-12-05T00:52:00.152Z,28.40
2022-12-05T00:54:38.864Z,28.20
2022-12-05T00:57:06.971Z,28.70
2022-12-05T00:59:34.871Z,29.60
2022-12-05T01:02:09.331Z,28.70
2022-12-05T01:04:44.764Z,27.70
2022-12-05T01:07:19.553Z,30.50
2022-12-05T01:09:53.722Z,28.30
2022-12-05T01:12:29.250Z,28.50
2022-12-05T01:14:57.131Z,28.60
2022-12-05T01:17:25.017Z,32.20
2022-12-05T01:19:52.888Z,28.80
2022-12-05T01:22:20.828Z,28.80
2022-12-05T01:24:48.716Z,29.10
2022-12-05T01:27:16.699Z,29.70
2022-12-05T01:29:50.237Z,32.30
2022-12-05T01:32:25.853Z,30.80
2022-12-05T01:35:00.462Z,29.40
2022-12-05T01:40:09.712Z,28.40
2022-12-05T01:42:43.752Z,27.30
2022-12-05T01:45:40.138Z,29.20
2022-12-05T01:48:18.324Z,30.30
2022-12-05T01:50:48.715Z,29.90
2022-12-05T01:53:17.807Z,29.20
2022-12-05T01:55:53.917Z,30.40
2022-12-05T01:58:32.793Z,26.90
2022-12-05T02:01:06.814Z,30.90
2022-12-05T02:03:44.318Z,28.10
2022-12-05T02:06:19.160Z,29.10
2022-12-05T02:08:54.558Z,29.80
2022-12-05T02:11:30.351Z,31.90
2022-12-05T02:14:15.007Z,30.00
2022-12-05T02:16:47.580Z,32.20
2022-12-05T02:19:48.456Z,28.80
2022-12-05T02:22:51.604Z,31.10
2022-12-05T02:25:41.321Z,30.90
2022-12-05T02:28:48.916Z,31.00
2022-12-05T02:31:41.397Z,31.60
2022-12-05T02:34:26.886Z,30.10
2022-12-05T02:37:33.562Z,31.60
2022-12-05T02:40:22.931Z,30.40
2022-12-05T02:43:08.118Z,27.70
2022-12-05T02:45:45.532Z,29.20
2022-12-05T02:48:35.167Z,26.10
2022-12-05T02:51:28.733Z,28.20
2022-12-05T02:54:08.759Z,29.20
2022-12-05T02:56:46.837Z,30.60
2022-12-05T02:59:23.601Z,30.00
2022-12-05T03:01:58.244Z,27.90
2022-12-05T03:04:33.742Z,27.50
2022-12-05T03:07:12.649Z,25.60
2022-12-05T03:09:54.403Z,25.30
2022-12-05T03:12:42.417Z,26.50
2022-12-05T03:15:31.890Z,27.10
2022-12-05T03:18:14.798Z,28.40
2022-12-05T03:20:58.129Z,30.30
2022-12-05T03:23:41.850Z,30.80
2022-12-05T03:26:38.621Z,29.50
2022-12-05T03:29:34.186Z,28.60
2022-12-05T03:32:19.902Z,31.40
2022-12-05T03:35:14.188Z,37.30
2022-12-05T03:37:57.119Z,40.80
2022-12-05T03:40:30.974Z,35.00
2022-12-05T03:43:37.996Z,33.40
2022-12-05T03:46:19.124Z,31.60
2022-12-05T03:49:09.747Z,31.00
2022-12-05T03:51:44.778Z,31.10
2022-12-05T03:54:26.036Z,29.80
2022-12-05T03:57:13.981Z,28.40
2022-12-05T03:59:55.040Z,30.60
2022-12-05T04:02:45.507Z,31.40
2022-12-05T04:05:40.472Z,32.90
2022-12-05T04:08:26.303Z,30.00
2022-12-05T04:11:09.825Z,28.60
2022-12-05T04:13:52.257Z,32.40
2022-12-05T04:17:01.185Z,32.40
2022-12-05T04:19:58.988Z,30.70
2022-12-05T04:22:36.657Z,28.20
2022-12-05T04:25:34.682Z,30.20
2022-12-05T04:28:21.450Z,26.80
2022-12-05T04:31:22.983Z,28.80
2022-12-05T04:34:14.720Z,28.00
2022-12-05T04:36:58.166Z,34.00
2022-12-05T04:39:54.326Z,30.10
2022-12-05T04:42:26.344Z,28.90
2022-12-05T04:45:00.257Z,27.10
2022-12-05T04:47:34.986Z,27.40
2022-12-05T04:50:04.051Z,27.10
2022-12-05T04:52:33.856Z,25.70
2022-12-05T04:55:17.743Z,29.40
2022-12-05T04:57:58.085Z,30.40
2022-12-05T05:00:29.560Z,30.40
2022-12-05T05:03:17.140Z,28.80
2022-12-05T05:05:48.786Z,25.80
2022-12-05T05:08:22.217Z,24.40
2022-12-05T05:11:08.310Z,27.30
2022-12-05T05:13:36.354Z,16.60
2022-12-05T05:16:05.218Z,31.70
2022-12-05T05:18:33.855Z,32.30
2022-12-05T05:21:01.717Z,30.70
2022-12-05T05:23:29.762Z,29.40
2022-12-05T05:25:57.643Z,27.20
2022-12-05T05:28:25.503Z,25.90
2022-12-05T05:30:53.572Z,28.30
2022-12-05T05:33:21.650Z,34.50
2022-12-05T05:35:49.559Z,32.50
2022-12-05T05:38:17.488Z,30.30
2022-12-05T05:40:45.531Z,31.90
2022-12-05T05:43:13.482Z,28.20
2022-12-05T05:45:41.474Z,28.40
2022-12-05T05:48:09.410Z,28.60
2022-12-05T05:50:37.466Z,29.30
2022-12-05T05:53:12.219Z,26.60
2022-12-05T05:55:41.288Z,30.00
2022-12-05T05:58:09.621Z,29.60
2022-12-05T06:00:37.538Z,28.60
2022-12-05T06:03:05.592Z,31.60
2022-12-05T06:05:41.447Z,29.30
2022-12-05T06:08:09.408Z,34.20
2022-12-05T06:10:39.327Z,29.20
2022-12-05T06:13:07.306Z,29.80
2022-12-05T06:15:36.996Z,27.80
2022-12-05T06:18:04.934Z,31.30
2022-12-05T06:20:32.846Z,28.90
2022-12-05T06:23:00.698Z,32.00
2022-12-05T06:25:28.645Z,32.90
2022-12-05T06:28:13.402Z,28.70
2022-12-05T06:30:41.433Z,35.80
2022-12-05T06:33:09.591Z,37.20
2022-12-05T06:36:06.124Z,33.00
2022-12-05T06:38:36.911Z,33.60
2022-12-05T06:41:12.060Z,36.80
2022-12-05T06:43:39.975Z,33.60
2022-12-05T06:46:09.499Z,32.20
2022-12-05T06:48:37.456Z,28.80
2022-12-05T06:51:07.048Z,29.30
2022-12-05T06:53:35.039Z,28.50
2022-12-05T06:56:05.428Z,28.50
2022-12-05T06:58:35.452Z,26.00
2022-12-05T07:01:21.895Z,26.00
2022-12-05T07:03:50.105Z,28.90
2022-12-05T07:06:18.087Z,31.20
2022-12-05T07:08:46.114Z,28.90
2022-12-05T07:11:13.958Z,25.70
2022-12-05T07:13:42.410Z,27.80
2022-12-05T07:16:10.364Z,25.60
2022-12-05T07:18:38.421Z,26.10
2022-12-05T07:21:12.544Z,25.40
2022-12-05T07:23:42.672Z,28.60
2022-12-05T07:26:14.317Z,29.60
2022-12-05T07:28:42.712Z,29.10
2022-12-05T07:31:14.034Z,29.60
2022-12-05T07:33:42.178Z,28.00
2022-12-05T07:36:15.709Z,27.50
2022-12-05T07:38:44.644Z,26.30
2022-12-05T07:41:24.828Z,26.40
2022-12-05T07:43:54.225Z,26.90
2022-12-05T07:46:23.294Z,27.60
2022-12-05T07:48:52.116Z,27.40
2022-12-05T07:51:21.594Z,28.30
2022-12-05T07:53:50.038Z,28.40
2022-12-05T07:56:18.426Z,27.60
2022-12-05T07:58:49.195Z,28.60
2022-12-05T08:01:24.894Z,27.00
2022-12-05T08:03:55.051Z,27.20
2022-12-05T08:06:26.639Z,27.90
2022-12-05T08:08:55.249Z,32.10
2022-12-05T08:11:31.079Z,31.60
2022-12-05T08:13:59.255Z,32.30
2022-12-05T08:16:29.780Z,31.20
2022-12-05T08:19:03.831Z,31.70
2022-12-05T08:21:32.505Z,30.50
2022-12-05T08:24:01.128Z,30.40
2022-12-05T08:26:31.056Z,29.70
2022-12-05T08:29:03.497Z,28.90
2022-12-05T08:31:34.028Z,32.20
2022-12-05T08:34:02.597Z,31.00
2022-12-05T08:36:31.382Z,32.50
2022-12-05T08:39:02.260Z,32.10
2022-12-05T08:41:31.244Z,30.30
2022-12-05T08:44:03.310Z,32.90
2022-12-05T08:46:34.074Z,33.70
2022-12-05T08:49:03.875Z,36.40
2022-12-05T08:51:32.386Z,33.60
2022-12-05T08:54:03.503Z,32.90
2022-12-05T08:56:33.132Z,38.80
2022-12-05T08:59:05.611Z,36.10
2022-12-05T09:01:38.514Z,35.10
2022-12-05T09:04:07.789Z,35.60
2022-12-05T09:06:36.255Z,37.90
2022-12-05T09:09:06.757Z,35.10
2022-12-05T09:11:37.771Z,34.00
2022-12-05T09:14:05.685Z,33.40
2022-12-05T09:16:38.407Z,34.10
2022-12-05T09:19:21.019Z,35.40
2022-12-05T09:21:49.348Z,35.50
2022-12-05T09:24:17.446Z,37.00
2022-12-05T09:26:46.034Z,38.80
2022-12-05T09:29:17.304Z,38.90
2022-12-05T09:31:48.092Z,36.80
2022-12-05T09:34:18.353Z,37.70
2022-12-05T09:36:55.628Z,37.00
2022-12-05T09:39:29.428Z,40.20
2022-12-05T09:42:19.380Z,39.90
2022-12-05T09:45:06.145Z,38.30
2022-12-05T09:47:49.665Z,37.40
2022-12-05T09:50:17.511Z,36.10
2022-12-05T09:53:05.000Z,32.90
2022-12-05T09:55:43.845Z,33.60
2022-12-05T09:58:30.308Z,32.90
2022-12-05T10:01:03.505Z,36.00
2022-12-05T10:03:45.870Z,35.70
2022-12-05T10:06:28.864Z,33.70
2022-12-05T10:09:42.952Z,31.80
2022-12-05T10:12:10.950Z,35.70
2022-12-05T10:15:03.855Z,35.70
2022-12-05T10:17:35.380Z,36.10
2022-12-05T10:20:16.685Z,34.80
2022-12-05T10:22:52.215Z,34.60
2022-12-05T10:25:22.834Z,35.40
2022-12-05T10:27:57.131Z,39.00
2022-12-05T10:30:29.881Z,40.70
2022-12-05T10:33:01.772Z,44.60
2022-12-05T10:35:35.886Z,44.30
2022-12-05T10:38:07.015Z,39.60
2022-12-05T10:40:46.265Z,39.10
2022-12-05T10:43:23.762Z,37.30
2022-12-05T10:45:51.761Z,37.50
2022-12-05T10:48:21.329Z,35.20
2022-12-05T10:50:55.614Z,37.50
2022-12-05T10:53:41.837Z,37.10
2022-12-05T10:56:49.805Z,41.10
2022-12-05T10:59:20.616Z,36.40
2022-12-05T11:01:52.618Z,33.30
2022-12-05T11:04:28.795Z,34.60
2022-12-05T11:07:03.122Z,37.10
2022-12-05T11:09:37.293Z,42.30
2022-12-05T11:12:22.727Z,36.40
2022-12-05T11:14:58.650Z,36.70
2022-12-05T11:17:38.548Z,40.40
2022-12-05T11:20:34.175Z,41.50
2022-12-05T11:23:26.552Z,41.00
2022-12-05T11:25:56.578Z,35.80
2022-12-05T11:28:31.360Z,36.90
2022-12-05T11:31:02.497Z,34.70
2022-12-05T11:33:33.156Z,35.50
2022-12-05T11:36:35.791Z,34.40
2022-12-05T11:39:03.864Z,35.50
2022-12-05T11:42:03.737Z,35.30
2022-12-05T11:44:39.433Z,35.40
2022-12-05T11:47:27.917Z,32.10
2022-12-05T11:50:16.365Z,34.90
2022-12-05T11:52:56.560Z,34.80
2022-12-05T11:55:39.745Z,35.10
2022-12-05T11:58:19.790Z,35.20
2022-12-05T12:01:13.236Z,39.50
2022-12-05T12:03:53.926Z,41.20
2022-12-05T12:06:33.024Z,43.80
2022-12-05T12:09:25.644Z,45.40
2022-12-05T12:12:11.661Z,47.90
2022-12-05T12:15:01.068Z,44.40
2022-12-05T12:17:29.262Z,41.20
2022-12-05T12:20:39.013Z,42.70
2022-12-05T12:23:44.612Z,45.20
2022-12-05T12:29:07.838Z,48.60
2022-12-05T12:31:55.890Z,47.20
2022-12-05T12:34:35.158Z,49.20
2022-12-05T12:37:17.478Z,42.20
2022-12-05T12:39:48.393Z,41.30
2022-12-05T12:42:20.303Z,43.40
2022-12-05T12:45:14.310Z,44.40
2022-12-05T12:48:29.987Z,45.10
2022-12-05T12:51:01.966Z,45.50
2022-12-05T12:53:44.958Z,47.80
2022-12-05T12:56:13.075Z,48.80
2022-12-05T12:58:52.180Z,49.90
2022-12-05T13:01:40.467Z,56.40
2022-12-05T13:04:15.939Z,59.30
2022-12-05T13:06:52.250Z,56.80
2022-12-05T13:09:52.171Z,55.20
2022-12-05T13:12:26.396Z,62.30
2022-12-05T13:15:02.918Z,64.40
2022-12-05T13:17:32.986Z,62.20
2022-12-05T13:20:03.260Z,71.90
2022-12-05T13:22:31.796Z,56.90
2022-12-05T13:24:59.962Z,57.10
2022-12-05T13:27:28.514Z,55.30
2022-12-05T13:29:59.922Z,63.70
2022-12-05T13:32:36.399Z,63.70
2022-12-05T13:35:06.891Z,63.10
2022-12-05T13:37:54.164Z,53.70
2022-12-05T13:40:48.201Z,46.10
2022-12-05T13:43:23.225Z,52.70
2022-12-05T13:46:08.739Z,42.50
2022-12-05T13:48:40.960Z,47.50
2022-12-05T13:51:26.373Z,43.70
2022-12-05T13:54:01.648Z,43.80
2022-12-05T13:56:48.051Z,36.40
2022-12-05T13:59:53.344Z,35.30
2022-12-05T14:02:47.289Z,42.30
2022-12-05T14:05:20.017Z,55.10
2022-12-05T14:07:53.009Z,61.90
2022-12-05T14:10:43.967Z,69.00
2022-12-05T14:13:14.988Z,60.10
2022-12-05T14:15:45.874Z,48.20
2022-12-05T14:18:18.677Z,51.00
2022-12-05T14:21:08.323Z,53.40
2022-12-05T14:23:42.748Z,56.60
2022-12-05T14:26:32.025Z,51.60
2022-12-05T14:29:08.955Z,40.70
2022-12-05T14:31:47.733Z,45.00
2022-12-05T14:34:25.272Z,47.40
2022-12-05T14:37:31.677Z,48.60
2022-12-05T14:40:02.379Z,55.30
2022-12-05T14:42:43.076Z,50.50
2022-12-05T14:45:48.038Z,43.30
2022-12-05T14:48:15.991Z,45.00
2022-12-05T14:50:49.230Z,42.50
2022-12-05T14:53:39.682Z,42.00
2022-12-05T14:56:16.248Z,44.90
2022-12-05T14:58:48.726Z,47.80
2022-12-05T15:01:22.402Z,43.10
2022-12-05T15:06:19.080Z,46.90
2022-12-05T15:08:50.606Z,45.60
2022-12-05T15:11:28.715Z,48.10
2022-12-05T15:14:21.364Z,47.60
2022-12-05T15:16:54.023Z,44.60
2022-12-05T15:19:42.174Z,48.40
2022-12-05T15:22:15.356Z,48.10
2022-12-05T15:24:43.448Z,47.50
2022-12-05T15:27:12.217Z,41.50
2022-12-05T15:29:41.252Z,40.70
2022-12-05T15:32:12.144Z,48.30
2022-12-05T15:34:45.551Z,66.30
2022-12-05T15:37:32.527Z,82.00
2022-12-05T15:40:20.794Z,63.30
2022-12-05T15:42:54.378Z,68.40
2022-12-05T15:45:23.562Z,86.00
2022-12-05T15:48:07.219Z,74.90
2022-12-05T15:51:04.544Z,99.80
2022-12-05T15:53:40.183Z,91.10
2022-12-05T15:56:23.087Z,114.50
2022-12-05T15:59:03.367Z,92.90
2022-12-05T16:01:35.904Z,100.10
2022-12-05T16:04:29.928Z,105.60
2022-12-05T16:07:05.327Z,100.50
2022-12-05T16:09:34.647Z,92.70
2022-12-05T16:12:16.215Z,90.50
2022-12-05T16:15:01.367Z,84.10
2022-12-05T16:17:37.879Z,83.40
2022-12-05T16:20:18.141Z,96.50
2022-12-05T16:22:51.196Z,141.90
2022-12-05T16:25:27.559Z,129.20
2022-12-05T16:28:14.792Z,95.00
2022-12-05T16:30:55.562Z,91.30
2022-12-05T16:33:23.805Z,96.60
2022-12-05T16:35:51.998Z,126.60
2022-12-05T16:38:25.792Z,145.90
2022-12-05T16:41:02.037Z,135.10
2022-12-05T16:43:33.238Z,138.80
2022-12-05T16:46:13.532Z,134.10
2022-12-05T16:48:50.158Z,146.00
2022-12-05T16:51:21.360Z,142.30
2022-12-05T16:53:51.535Z,150.50
2022-12-05T16:56:29.838Z,171.40
2022-12-05T16:58:58.686Z,127.20
2022-12-05T17:01:27.515Z,111.30
2022-12-05T17:03:57.229Z,111.30
2022-12-05T17:06:26.394Z,102.40
2022-12-05T17:08:55.025Z,134.70
2022-12-05T17:11:30.037Z,129.70
2022-12-05T17:16:27.144Z,115.80
2022-12-05T17:18:55.689Z,157.30
2022-12-05T17:21:26.945Z,147.80
2022-12-05T17:23:55.367Z,167.60
2022-12-05T17:26:23.387Z,157.80
2022-12-05T17:28:51.393Z,158.20
2022-12-05T17:31:21.943Z,157.50
2022-12-05T17:33:52.181Z,162.30
2022-12-05T17:36:23.490Z,173.80
2022-12-05T17:38:51.446Z,161.60
2022-12-05T17:41:23.068Z,150.20
2022-12-05T17:43:51.647Z,162.40
2022-12-05T17:46:22.307Z,152.60
2022-12-05T17:48:51.486Z,149.30
2022-12-05T17:51:20.664Z,144.40
2022-12-05T17:53:48.908Z,150.10
2022-12-05T17:56:16.858Z,124.00
2022-12-05T17:58:44.810Z,123.90
2022-12-05T18:01:18.727Z,140.50
2022-12-05T18:03:48.225Z,246.20
2022-12-05T18:06:16.753Z,249.40
2022-12-05T18:08:45.416Z,233.90
2022-12-05T18:11:14.674Z,235.20
2022-12-05T18:13:42.672Z,235.60
2022-12-05T18:16:11.125Z,222.30
2022-12-05T18:18:39.470Z,216.20
2022-12-05T18:21:12.469Z,193.90
2022-12-05T18:23:41.210Z,177.70
2022-12-05T18:26:10.979Z,162.90
2022-12-05T18:28:39.977Z,172.10
2022-12-05T18:31:11.164Z,208.70
2022-12-05T18:33:39.546Z,200.00
2022-12-05T18:36:11.493Z,176.70
2022-12-05T18:38:39.603Z,162.20
2022-12-05T18:41:07.577Z,172.10
2022-12-05T18:43:36.078Z,147.80
2022-12-05T18:46:04.623Z,160.90
2022-12-05T18:48:46.981Z,175.30
2022-12-05T18:51:20.900Z,163.60
2022-12-05T18:53:54.858Z,180.60
2022-12-05T18:56:27.638Z,166.90
2022-12-05T19:02:05.301Z,168.30
2022-12-05T19:04:33.263Z,178.40
2022-12-05T19:07:02.070Z,183.80
2022-12-05T19:09:31.463Z,173.10
2022-12-05T19:12:00.837Z,170.00
2022-12-05T19:14:33.000Z,164.80
2022-12-05T19:17:02.717Z,162.20
2022-12-05T19:19:33.401Z,164.70
2022-12-05T19:22:02.257Z,186.70
2022-12-05T19:24:30.501Z,181.60
2022-12-05T19:26:58.427Z,155.00
2022-12-05T19:29:26.412Z,152.70
2022-12-05T19:31:54.351Z,144.80
2022-12-05T19:34:24.392Z,159.10
2022-12-05T19:36:52.328Z,178.10
2022-12-05T19:39:23.721Z,180.20
2022-12-05T19:41:51.996Z,178.60
2022-12-05T19:44:22.178Z,160.30
2022-12-05T19:46:50.771Z,142.30
2022-12-05T19:49:19.308Z,152.50
2022-12-05T19:51:48.747Z,168.50
2022-12-05T19:54:22.074Z,152.30
2022-12-05T19:56:50.115Z,162.80
2022-12-05T19:59:18.151Z,153.40
2022-12-05T20:01:46.130Z,148.00
2022-12-05T20:04:16.230Z,151.30
2022-12-05T20:06:47.869Z,158.20
2022-12-05T20:09:19.432Z,169.20
2022-12-05T20:11:55.149Z,169.40
2022-12-05T20:14:25.589Z,180.60
2022-12-05T20:16:56.143Z,179.40
2022-12-05T20:19:24.205Z,174.20
2022-12-05T20:21:52.564Z,163.10
2022-12-05T20:24:20.598Z,157.60
2022-12-05T20:26:48.846Z,162.20
2022-12-05T20:29:16.776Z,174.90
2022-12-05T20:31:44.835Z,179.30
2022-12-05T20:34:15.194Z,186.80
2022-12-05T20:36:43.449Z,175.90
2022-12-05T20:39:14.905Z,130.90
2022-12-05T20:41:43.794Z,99.10
2022-12-05T20:44:15.138Z,103.10
2022-12-05T20:46:43.295Z,96.70
2022-12-05T20:49:14.554Z,94.40
2022-12-05T20:51:44.134Z,116.60
2022-12-05T20:54:13.660Z,117.10
2022-12-05T20:56:41.672Z,107.80
2022-12-05T20:59:11.858Z,91.60
2022-12-05T21:01:40.323Z,67.80
2022-12-05T21:04:09.179Z,81.50
2022-12-05T21:06:40.565Z,77.20
2022-12-05T21:09:15.484Z,72.40
2022-12-05T21:11:43.523Z,76.30
2022-12-05T21:14:12.149Z,74.40
2022-12-05T21:16:40.640Z,78.10
2022-12-05T21:19:08.944Z,78.50
2022-12-05T21:21:37.162Z,91.20
2022-12-05T21:24:06.266Z,90.50
2022-12-05T21:26:35.012Z,94.80
2022-12-05T21:29:04.733Z,95.50
2022-12-05T21:31:35.666Z,99.10
2022-12-05T21:34:07.037Z,98.90
2022-12-05T21:36:36.887Z,90.20
2022-12-05T21:39:06.189Z,102.90
2022-12-05T21:41:34.512Z,94.50
2022-12-05T21:44:02.827Z,92.80
2022-12-05T21:46:31.293Z,123.80
2022-12-05T21:48:59.688Z,173.50
2022-12-05T21:51:27.795Z,179.70
2022-12-05T21:53:55.726Z,168.80
2022-12-05T21:56:24.441Z,171.50
2022-12-05T22:01:24.951Z,145.40
2022-12-05T22:03:54.970Z,154.60
2022-12-05T22:06:23.137Z,154.10
2022-12-05T22:08:51.347Z,152.10
2022-12-05T22:11:21.464Z,160.20
2022-12-05T22:13:50.004Z,140.20
2022-12-05T22:16:18.506Z,132.50
2022-12-05T22:18:46.924Z,123.10
2022-12-05T22:21:18.382Z,129.70
2022-12-05T22:23:47.670Z,140.60
2022-12-05T22:26:17.307Z,131.40
2022-12-05T22:28:45.774Z,128.10
2022-12-05T22:31:16.066Z,136.40
2022-12-05T22:33:45.236Z,134.00
2022-12-05T22:36:15.281Z,133.90
2022-12-05T22:38:46.921Z,134.00
2022-12-05T22:41:26.403Z,132.30
2022-12-05T22:43:57.476Z,137.80
2022-12-05T22:46:27.351Z,125.30
2022-12-05T22:48:56.545Z,92.00
2022-12-05T22:51:26.396Z,74.40
2022-12-05T22:53:54.911Z,72.90
2022-12-05T22:56:26.257Z,77.90
2022-12-05T22:58:56.982Z,105.90
2022-12-05T23:01:30.271Z,114.10
2022-12-05T23:04:01.069Z,87.30
2022-12-05T23:06:30.822Z,74.10
2022-12-05T23:08:59.477Z,67.60
2022-12-05T23:11:28.687Z,68.70
2022-12-05T23:14:02.225Z,57.40
2022-12-05T23:16:32.745Z,81.20
2022-12-05T23:19:04.207Z,86.10
2022-12-05T23:21:37.313Z,94.00
2022-12-05T23:24:08.305Z,107.40
2022-12-05T23:26:42.465Z,114.30
2022-12-05T23:29:12.588Z,114.70
2022-12-05T23:31:42.324Z,118.50
2022-12-05T23:34:11.218Z,119.80
2022-12-05T23:36:39.588Z,123.50
2022-12-05T23:39:07.646Z,115.90
2022-12-05T23:41:35.709Z,105.90
2022-12-05T23:44:04.051Z,117.80
2022-12-05T23:46:32.321Z,115.50
2022-12-05T23:49:00.662Z,121.60
2022-12-05T23:51:30.854Z,122.90
2022-12-05T23:54:01.727Z,125.40
2022-12-05T23:56:32.684Z,118.30
2022-12-05T23:59:02.704Z,114.20
